sensor_id;sensor_type;location;lat;lon;timestamp;pressure;altitude;pressure_sealevel;temperature;humidity
64889;BME280;51386;53.082;8.816;2022-11-03T00:01:37;101561.78;;;14.83;51.10
64889;BME280;51386;53.082;8.816;2022-11-03T00:04:06;101564.06;;;14.86;50.93
64889;BME280;51386;53.082;8.816;2022-11-03T00:06:34;101557.78;;;14.87;50.67
64889;BME280;51386;53.082;8.816;2022-11-03T00:09:04;101554.09;;;14.88;50.80
64889;BME280;51386;53.082;8.816;2022-11-03T00:11:32;101552.94;;;14.91;50.83
64889;BME280;51386;53.082;8.816;2022-11-03T00:14:02;101536.84;;;14.93;51.00
64889;BME280;51386;53.082;8.816;2022-11-03T00:16:30;101540.59;;;14.98;51.05
64889;BME280;51386;53.082;8.816;2022-11-03T00:18:57;101532.53;;;14.91;50.69
64889;BME280;51386;53.082;8.816;2022-11-03T00:21:24;101534.22;;;14.93;50.81
64889;BME280;51386;53.082;8.816;2022-11-03T00:23:52;101539.66;;;14.91;50.94
64889;BME280;51386;53.082;8.816;2022-11-03T00:26:21;101522.94;;;14.90;50.92
64889;BME280;51386;53.082;8.816;2022-11-03T00:28:51;101528.06;;;14.92;51.21
64889;BME280;51386;53.082;8.816;2022-11-03T00:31:22;101520.28;;;14.90;51.04
64889;BME280;51386;53.082;8.816;2022-11-03T00:33:51;101522.31;;;14.88;50.98
64889;BME280;51386;53.082;8.816;2022-11-03T00:36:22;101523.13;;;14.89;51.09
64889;BME280;51386;53.082;8.816;2022-11-03T00:38:49;101511.34;;;14.91;51.31
64889;BME280;51386;53.082;8.816;2022-11-03T00:41:18;101512.59;;;14.96;51.17
64889;BME280;51386;53.082;8.816;2022-11-03T00:43:48;101512.25;;;14.99;51.30
64889;BME280;51386;53.082;8.816;2022-11-03T00:46:16;101509.25;;;15.02;51.13
64889;BME280;51386;53.082;8.816;2022-11-03T00:48:45;101506.22;;;15.05;50.97
64889;BME280;51386;53.082;8.816;2022-11-03T00:51:14;101511.53;;;15.05;50.73
64889;BME280;51386;53.082;8.816;2022-11-03T00:53:44;101500.91;;;15.05;51.17
64889;BME280;51386;53.082;8.816;2022-11-03T00:56:13;101494.59;;;15.06;51.09
64889;BME280;51386;53.082;8.816;2022-11-03T00:58:41;101488.09;;;15.08;51.26
64889;BME280;51386;53.082;8.816;2022-11-03T01:01:11;101494.03;;;15.10;50.59
64889;BME280;51386;53.082;8.816;2022-11-03T01:03:42;101491.22;;;15.12;50.72
64889;BME280;51386;53.082;8.816;2022-11-03T01:06:35;101483.25;;;15.12;50.95
64889;BME280;51386;53.082;8.816;2022-11-03T01:09:21;101486.09;;;15.10;50.62
64889;BME280;51386;53.082;8.816;2022-11-03T01:11:57;101481.34;;;15.06;51.04
64889;BME280;51386;53.082;8.816;2022-11-03T01:14:27;101471.09;;;15.03;51.30
64889;BME280;51386;53.082;8.816;2022-11-03T01:16:55;101472.13;;;15.02;51.24
64889;BME280;51386;53.082;8.816;2022-11-03T01:19:22;101466.34;;;14.98;51.42
64889;BME280;51386;53.082;8.816;2022-11-03T01:21:51;101468.38;;;14.96;51.38
64889;BME280;51386;53.082;8.816;2022-11-03T01:24:19;101467.72;;;14.94;51.28
64889;BME280;51386;53.082;8.816;2022-11-03T01:26:47;101473.47;;;14.98;51.36
64889;BME280;51386;53.082;8.816;2022-11-03T01:29:14;101451.06;;;15.00;51.22
64889;BME280;51386;53.082;8.816;2022-11-03T01:31:41;101464.25;;;14.93;51.34
64889;BME280;51386;53.082;8.816;2022-11-03T01:34:13;101464.81;;;14.89;51.61
64889;BME280;51386;53.082;8.816;2022-11-03T01:36:41;101463.91;;;14.82;51.62
64889;BME280;51386;53.082;8.816;2022-11-03T01:39:12;101463.72;;;14.83;51.83
64889;BME280;51386;53.082;8.816;2022-11-03T01:41:40;101469.69;;;14.85;51.62
64889;BME280;51386;53.082;8.816;2022-11-03T01:44:29;101471.16;;;14.73;52.08
64889;BME280;51386;53.082;8.816;2022-11-03T01:47:05;101476.88;;;14.77;51.73
64889;BME280;51386;53.082;8.816;2022-11-03T01:49:42;101475.16;;;14.69;52.14
64889;BME280;51386;53.082;8.816;2022-11-03T01:52:16;101464.19;;;14.72;52.00
64889;BME280;51386;53.082;8.816;2022-11-03T01:54:49;101456.16;;;14.80;51.82
64889;BME280;51386;53.082;8.816;2022-11-03T01:57:24;101457.06;;;14.87;51.69
64889;BME280;51386;53.082;8.816;2022-11-03T01:59:56;101451.00;;;14.93;51.68
64889;BME280;51386;53.082;8.816;2022-11-03T02:02:25;101444.88;;;14.93;51.59
64889;BME280;51386;53.082;8.816;2022-11-03T02:04:54;101439.00;;;14.98;51.55
64889;BME280;51386;53.082;8.816;2022-11-03T02:07:31;101436.00;;;15.01;51.35
64889;BME280;51386;53.082;8.816;2022-11-03T02:10:01;101422.09;;;14.99;51.18
64889;BME280;51386;53.082;8.816;2022-11-03T02:12:29;101411.97;;;15.02;51.60
64889;BME280;51386;53.082;8.816;2022-11-03T02:15:02;101411.13;;;15.02;51.79
64889;BME280;51386;53.082;8.816;2022-11-03T02:17:32;101407.41;;;14.96;51.31
64889;BME280;51386;53.082;8.816;2022-11-03T02:20:04;101405.78;;;14.95;51.41
64889;BME280;51386;53.082;8.816;2022-11-03T02:23:00;101398.75;;;14.87;51.42
64889;BME280;51386;53.082;8.816;2022-11-03T02:25:41;101402.75;;;14.83;51.84
64889;BME280;51386;53.082;8.816;2022-11-03T02:28:11;101392.41;;;14.88;51.83
64889;BME280;51386;53.082;8.816;2022-11-03T02:30:45;101389.34;;;14.85;51.72
64889;BME280;51386;53.082;8.816;2022-11-03T02:33:30;101384.03;;;14.85;51.83
64889;BME280;51386;53.082;8.816;2022-11-03T02:36:05;101377.91;;;14.84;51.43
64889;BME280;51386;53.082;8.816;2022-11-03T02:38:44;101375.88;;;14.86;51.56
64889;BME280;51386;53.082;8.816;2022-11-03T02:41:16;101370.84;;;14.91;51.37
64889;BME280;51386;53.082;8.816;2022-11-03T02:43:45;101371.47;;;14.93;51.52
64889;BME280;51386;53.082;8.816;2022-11-03T02:46:16;101371.47;;;14.93;51.40
64889;BME280;51386;53.082;8.816;2022-11-03T02:48:44;101378.44;;;14.95;51.60
64889;BME280;51386;53.082;8.816;2022-11-03T02:51:12;101370.66;;;14.93;51.45
64889;BME280;51386;53.082;8.816;2022-11-03T02:54:01;101370.22;;;14.89;51.07
64889;BME280;51386;53.082;8.816;2022-11-03T02:56:37;101366.16;;;14.93;51.30
64889;BME280;51386;53.082;8.816;2022-11-03T02:59:10;101364.16;;;14.96;51.39
64889;BME280;51386;53.082;8.816;2022-11-03T03:01:45;101362.78;;;15.00;51.21
64889;BME280;51386;53.082;8.816;2022-11-03T03:04:20;101368.09;;;15.00;51.06
64889;BME280;51386;53.082;8.816;2022-11-03T03:06:53;101365.44;;;15.00;51.08
64889;BME280;51386;53.082;8.816;2022-11-03T03:09:26;101357.03;;;14.96;51.23
64889;BME280;51386;53.082;8.816;2022-11-03T03:11:59;101358.84;;;14.96;50.85
64889;BME280;51386;53.082;8.816;2022-11-03T03:14:33;101357.59;;;14.91;51.12
64889;BME280;51386;53.082;8.816;2022-11-03T03:17:08;101352.28;;;14.91;51.02
64889;BME280;51386;53.082;8.816;2022-11-03T03:19:48;101348.66;;;14.93;51.11
64889;BME280;51386;53.082;8.816;2022-11-03T03:22:26;101339.88;;;14.92;51.09
64889;BME280;51386;53.082;8.816;2022-11-03T03:25:01;101343.97;;;14.95;51.34
64889;BME280;51386;53.082;8.816;2022-11-03T03:27:33;101341.31;;;14.95;50.88
64889;BME280;51386;53.082;8.816;2022-11-03T03:30:06;101335.81;;;14.96;51.08
64889;BME280;51386;53.082;8.816;2022-11-03T03:32:37;101326.66;;;14.99;50.88
64889;BME280;51386;53.082;8.816;2022-11-03T03:35:09;101326.03;;;14.97;51.14
64889;BME280;51386;53.082;8.816;2022-11-03T03:37:42;101325.41;;;14.95;50.86
64889;BME280;51386;53.082;8.816;2022-11-03T03:40:16;101320.47;;;14.91;50.91
64889;BME280;51386;53.082;8.816;2022-11-03T03:42:47;101321.69;;;14.89;50.89
64889;BME280;51386;53.082;8.816;2022-11-03T03:45:16;101325.25;;;14.81;50.94
64889;BME280;51386;53.082;8.816;2022-11-03T03:47:45;101318.13;;;14.82;51.53
64889;BME280;51386;53.082;8.816;2022-11-03T03:50:13;101317.94;;;14.83;51.00
64889;BME280;51386;53.082;8.816;2022-11-03T03:52:40;101315.94;;;14.85;51.00
64889;BME280;51386;53.082;8.816;2022-11-03T03:55:16;101308.00;;;14.85;51.23
64889;BME280;51386;53.082;8.816;2022-11-03T03:57:45;101309.63;;;14.86;51.10
64889;BME280;51386;53.082;8.816;2022-11-03T04:00:13;101312.63;;;14.83;51.35
64889;BME280;51386;53.082;8.816;2022-11-03T04:02:41;101299.53;;;14.75;51.54
64889;BME280;51386;53.082;8.816;2022-11-03T04:05:08;101306.59;;;14.68;51.85
64889;BME280;51386;53.082;8.816;2022-11-03T04:07:35;101305.94;;;14.66;51.99
64889;BME280;51386;53.082;8.816;2022-11-03T04:10:18;101302.63;;;14.64;51.93
64889;BME280;51386;53.082;8.816;2022-11-03T04:12:47;101289.22;;;14.66;51.89
64889;BME280;51386;53.082;8.816;2022-11-03T04:15:33;101296.34;;;14.65;52.30
64889;BME280;51386;53.082;8.816;2022-11-03T04:18:20;101299.81;;;14.66;52.23
64889;BME280;51386;53.082;8.816;2022-11-03T04:21:10;101285.31;;;14.62;52.13
64889;BME280;51386;53.082;8.816;2022-11-03T04:23:57;101291.25;;;14.64;52.36
64889;BME280;51386;53.082;8.816;2022-11-03T04:26:27;101292.81;;;14.58;52.63
64889;BME280;51386;53.082;8.816;2022-11-03T04:28:56;101283.88;;;14.59;52.20
64889;BME280;51386;53.082;8.816;2022-11-03T04:31:27;101287.16;;;14.61;52.31
64889;BME280;51386;53.082;8.816;2022-11-03T04:33:55;101277.75;;;14.59;52.73
64889;BME280;51386;53.082;8.816;2022-11-03T04:36:24;101274.47;;;14.57;52.87
64889;BME280;51386;53.082;8.816;2022-11-03T04:38:52;101279.81;;;14.63;52.79
64889;BME280;51386;53.082;8.816;2022-11-03T04:41:22;101276.16;;;14.64;52.77
64889;BME280;51386;53.082;8.816;2022-11-03T04:43:51;101276.16;;;14.64;52.85
64889;BME280;51386;53.082;8.816;2022-11-03T04:46:24;101283.09;;;14.65;52.82
64889;BME280;51386;53.082;8.816;2022-11-03T04:48:53;101277.44;;;14.68;52.90
64889;BME280;51386;53.082;8.816;2022-11-03T04:51:23;101273.97;;;14.68;52.74
64889;BME280;51386;53.082;8.816;2022-11-03T04:53:54;101280.25;;;14.67;53.06
64889;BME280;51386;53.082;8.816;2022-11-03T04:56:24;101270.84;;;14.64;52.90
64889;BME280;51386;53.082;8.816;2022-11-03T04:58:52;101271.09;;;14.69;53.25
64889;BME280;51386;53.082;8.816;2022-11-03T05:01:22;101275.03;;;14.73;53.00
64889;BME280;51386;53.082;8.816;2022-11-03T05:03:53;101268.34;;;14.77;52.91
64889;BME280;51386;53.082;8.816;2022-11-03T05:06:23;101263.31;;;14.82;52.89
64889;BME280;51386;53.082;8.816;2022-11-03T05:08:55;101261.28;;;14.84;52.66
64889;BME280;51386;53.082;8.816;2022-11-03T05:11:31;101253.59;;;14.89;52.50
64889;BME280;51386;53.082;8.816;2022-11-03T05:14:03;101245.88;;;14.95;52.56
64889;BME280;51386;53.082;8.816;2022-11-03T05:16:33;101249.78;;;14.99;52.62
64889;BME280;51386;53.082;8.816;2022-11-03T05:19:01;101245.94;;;15.01;52.54
64889;BME280;51386;53.082;8.816;2022-11-03T05:21:28;101248.38;;;15.03;52.37
64889;BME280;51386;53.082;8.816;2022-11-03T05:24:01;101246.41;;;15.05;52.46
64889;BME280;51386;53.082;8.816;2022-11-03T05:26:32;101242.34;;;15.09;52.64
64889;BME280;51386;53.082;8.816;2022-11-03T05:29:03;101230.13;;;15.14;52.44
64889;BME280;51386;53.082;8.816;2022-11-03T05:31:39;101224.91;;;15.21;52.60
64889;BME280;51386;53.082;8.816;2022-11-03T05:34:34;101223.88;;;15.22;52.08
64889;BME280;51386;53.082;8.816;2022-11-03T05:37:20;101220.47;;;15.28;52.29
64889;BME280;51386;53.082;8.816;2022-11-03T05:39:56;101219.25;;;15.30;52.16
64889;BME280;51386;53.082;8.816;2022-11-03T05:42:32;101204.78;;;15.33;51.77
64889;BME280;51386;53.082;8.816;2022-11-03T05:45:03;101204.97;;;15.31;52.07
64889;BME280;51386;53.082;8.816;2022-11-03T05:47:37;101197.59;;;15.27;52.19
64889;BME280;51386;53.082;8.816;2022-11-03T05:50:19;101209.81;;;15.21;52.19
64889;BME280;51386;53.082;8.816;2022-11-03T05:52:49;101211.00;;;15.19;52.55
64889;BME280;51386;53.082;8.816;2022-11-03T05:55:24;101205.88;;;15.17;52.55
64889;BME280;51386;53.082;8.816;2022-11-03T05:57:57;101199.59;;;15.18;52.78
64889;BME280;51386;53.082;8.816;2022-11-03T06:00:31;101194.69;;;15.22;52.81
64889;BME280;51386;53.082;8.816;2022-11-03T06:03:00;101196.16;;;15.24;52.70
64889;BME280;51386;53.082;8.816;2022-11-03T06:05:29;101203.28;;;15.24;52.90
64889;BME280;51386;53.082;8.816;2022-11-03T06:08:00;101191.03;;;15.23;52.78
64889;BME280;51386;53.082;8.816;2022-11-03T06:10:33;101195.53;;;15.22;52.97
64889;BME280;51386;53.082;8.816;2022-11-03T06:13:10;101195.28;;;15.17;52.94
64889;BME280;51386;53.082;8.816;2022-11-03T06:15:43;101193.81;;;15.15;53.18
64889;BME280;51386;53.082;8.816;2022-11-03T06:18:16;101182.59;;;15.13;52.94
64889;BME280;51386;53.082;8.816;2022-11-03T06:20:50;101177.28;;;15.13;53.37
64889;BME280;51386;53.082;8.816;2022-11-03T06:23:19;101174.66;;;15.13;53.32
64889;BME280;51386;53.082;8.816;2022-11-03T06:25:48;101169.34;;;15.13;53.43
64889;BME280;51386;53.082;8.816;2022-11-03T06:28:19;101176.31;;;15.14;53.48
64889;BME280;51386;53.082;8.816;2022-11-03T06:30:48;101171.00;;;15.14;53.45
64889;BME280;51386;53.082;8.816;2022-11-03T06:33:24;101177.91;;;15.15;53.56
64889;BME280;51386;53.082;8.816;2022-11-03T06:35:58;101170.59;;;15.17;53.56
64889;BME280;51386;53.082;8.816;2022-11-03T06:38:29;101169.81;;;15.23;53.50
64889;BME280;51386;53.082;8.816;2022-11-03T06:40:57;101169.44;;;15.26;53.49
64889;BME280;51386;53.082;8.816;2022-11-03T06:43:30;101165.75;;;15.27;53.59
64889;BME280;51386;53.082;8.816;2022-11-03T06:46:14;101160.03;;;15.23;53.45
64889;BME280;51386;53.082;8.816;2022-11-03T06:48:45;101157.81;;;15.27;53.23
64889;BME280;51386;53.082;8.816;2022-11-03T06:51:21;101159.47;;;15.28;53.41
64889;BME280;51386;53.082;8.816;2022-11-03T06:53:50;101153.94;;;15.29;53.48
64889;BME280;51386;53.082;8.816;2022-11-03T06:56:21;101157.19;;;15.25;53.56
64889;BME280;51386;53.082;8.816;2022-11-03T06:58:52;101155.13;;;15.20;53.86
64889;BME280;51386;53.082;8.816;2022-11-03T07:01:23;101150.19;;;15.17;53.90
64889;BME280;51386;53.082;8.816;2022-11-03T07:03:59;101146.53;;;15.18;53.58
64889;BME280;51386;53.082;8.816;2022-11-03T07:06:30;101144.53;;;15.27;53.69
64889;BME280;51386;53.082;8.816;2022-11-03T07:09:03;101143.78;;;15.33;53.50
64889;BME280;51386;53.082;8.816;2022-11-03T07:11:43;101147.06;;;15.35;53.79
64889;BME280;51386;53.082;8.816;2022-11-03T07:14:15;101134.41;;;15.37;53.79
64889;BME280;51386;53.082;8.816;2022-11-03T07:16:46;101144.22;;;15.43;53.41
64889;BME280;51386;53.082;8.816;2022-11-03T07:19:19;101144.50;;;15.48;53.40
64889;BME280;51386;53.082;8.816;2022-11-03T07:21:50;101136.97;;;15.51;53.39
64889;BME280;51386;53.082;8.816;2022-11-03T07:24:23;101137.38;;;15.55;53.25
64889;BME280;51386;53.082;8.816;2022-11-03T07:26:58;101137.00;;;15.58;53.40
64889;BME280;51386;53.082;8.816;2022-11-03T07:29:29;101139.50;;;15.66;53.34
64889;BME280;51386;53.082;8.816;2022-11-03T07:31:58;101134.00;;;15.74;53.10
64889;BME280;51386;53.082;8.816;2022-11-03T07:34:32;101125.88;;;15.82;53.23
64889;BME280;51386;53.082;8.816;2022-11-03T07:36:59;101121.81;;;15.93;53.13
64889;BME280;51386;53.082;8.816;2022-11-03T07:39:33;101124.09;;;16.02;52.47
64889;BME280;51386;53.082;8.816;2022-11-03T07:42:10;101117.97;;;16.08;52.45
64889;BME280;51386;53.082;8.816;2022-11-03T07:44:39;101107.56;;;16.13;52.37
64889;BME280;51386;53.082;8.816;2022-11-03T07:47:13;101098.41;;;16.16;52.22
64889;BME280;51386;53.082;8.816;2022-11-03T07:49:44;101101.66;;;16.11;52.24
64889;BME280;51386;53.082;8.816;2022-11-03T07:52:14;101107.75;;;16.12;52.77
64889;BME280;51386;53.082;8.816;2022-11-03T07:54:42;101094.91;;;16.15;52.36
64889;BME280;51386;53.082;8.816;2022-11-03T07:57:17;101094.31;;;16.13;52.49
64889;BME280;51386;53.082;8.816;2022-11-03T07:59:48;101095.69;;;16.09;53.01
64889;BME280;51386;53.082;8.816;2022-11-03T08:02:29;101091.44;;;16.08;52.98
64889;BME280;51386;53.082;8.816;2022-11-03T08:04:58;101095.09;;;16.07;52.76
64889;BME280;51386;53.082;8.816;2022-11-03T08:07:26;101087.13;;;16.07;52.98
64889;BME280;51386;53.082;8.816;2022-11-03T08:09:54;101084.47;;;16.07;52.87
64889;BME280;51386;53.082;8.816;2022-11-03T08:12:21;101086.50;;;16.05;53.38
64889;BME280;51386;53.082;8.816;2022-11-03T08:14:49;101084.06;;;16.10;53.31
64889;BME280;51386;53.082;8.816;2022-11-03T08:17:16;101083.25;;;16.16;53.22
64889;BME280;51386;53.082;8.816;2022-11-03T08:19:43;101075.91;;;16.18;53.10
64889;BME280;51386;53.082;8.816;2022-11-03T08:22:11;101072.66;;;16.23;53.25
64889;BME280;51386;53.082;8.816;2022-11-03T08:24:38;101079.19;;;16.34;52.68
64889;BME280;51386;53.082;8.816;2022-11-03T08:27:05;101070.63;;;16.45;52.86
64889;BME280;51386;53.082;8.816;2022-11-03T08:29:33;101066.94;;;16.52;52.49
64889;BME280;51386;53.082;8.816;2022-11-03T08:32:00;101055.75;;;16.57;52.32
64889;BME280;51386;53.082;8.816;2022-11-03T08:34:27;101048.97;;;16.61;52.25
64889;BME280;51386;53.082;8.816;2022-11-03T08:36:54;101055.09;;;16.68;52.13
64889;BME280;51386;53.082;8.816;2022-11-03T08:39:22;101059.16;;;16.77;52.08
64889;BME280;51386;53.082;8.816;2022-11-03T08:41:53;101052.59;;;16.86;51.17
64889;BME280;51386;53.082;8.816;2022-11-03T08:44:23;101048.69;;;16.95;51.63
64889;BME280;51386;53.082;8.816;2022-11-03T08:46:50;101043.16;;;17.03;51.23
64889;BME280;51386;53.082;8.816;2022-11-03T08:49:17;101040.66;;;17.15;51.10
64889;BME280;51386;53.082;8.816;2022-11-03T08:51:44;101033.28;;;17.23;51.17
64889;BME280;51386;53.082;8.816;2022-11-03T08:54:12;101038.16;;;17.33;50.78
64889;BME280;51386;53.082;8.816;2022-11-03T08:56:40;101028.03;;;17.48;50.65
64889;BME280;51386;53.082;8.816;2022-11-03T08:59:07;101020.41;;;17.65;50.23
64889;BME280;51386;53.082;8.816;2022-11-03T09:01:35;101017.09;;;17.76;49.67
64889;BME280;51386;53.082;8.816;2022-11-03T09:04:02;101010.97;;;17.69;49.45
64889;BME280;51386;53.082;8.816;2022-11-03T09:06:29;101017.09;;;17.76;49.59
64889;BME280;51386;53.082;8.816;2022-11-03T09:08:56;101023.97;;;17.83;49.56
64889;BME280;51386;53.082;8.816;2022-11-03T09:11:45;101017.81;;;17.89;49.28
64889;BME280;51386;53.082;8.816;2022-11-03T09:14:12;101017.75;;;17.96;49.28
64889;BME280;51386;53.082;8.816;2022-11-03T09:16:39;101006.63;;;18.05;48.85
64889;BME280;51386;53.082;8.816;2022-11-03T09:19:06;101011.69;;;18.13;49.18
64889;BME280;51386;53.082;8.816;2022-11-03T09:21:33;101013.88;;;18.23;48.78
64889;BME280;51386;53.082;8.816;2022-11-03T09:24:00;100999.66;;;18.29;48.63
64889;BME280;51386;53.082;8.816;2022-11-03T09:26:27;101008.19;;;18.38;48.80
64889;BME280;51386;53.082;8.816;2022-11-03T09:28:56;101004.25;;;18.47;48.20
64889;BME280;51386;53.082;8.816;2022-11-03T09:31:23;100995.13;;;18.54;48.21
64889;BME280;51386;53.082;8.816;2022-11-03T09:34:07;100995.88;;;18.61;48.10
64889;BME280;51386;53.082;8.816;2022-11-03T09:36:37;100993.84;;;18.63;47.62
64889;BME280;51386;53.082;8.816;2022-11-03T09:39:05;100986.34;;;18.72;47.62
64889;BME280;51386;53.082;8.816;2022-11-03T09:41:32;100981.25;;;18.88;47.74
64889;BME280;51386;53.082;8.816;2022-11-03T09:44:21;100979.81;;;19.04;46.85
64889;BME280;51386;53.082;8.816;2022-11-03T09:46:49;100981.91;;;19.20;46.54
64889;BME280;51386;53.082;8.816;2022-11-03T09:49:27;100986.47;;;19.31;46.20
64889;BME280;51386;53.082;8.816;2022-11-03T09:51:54;100983.44;;;19.46;46.33
64889;BME280;51386;53.082;8.816;2022-11-03T09:54:21;100968.13;;;19.53;45.58
64889;BME280;51386;53.082;8.816;2022-11-03T09:56:49;100969.63;;;19.49;45.51
64889;BME280;51386;53.082;8.816;2022-11-03T10:00:17;100968.16;;;19.35;45.71
64889;BME280;51386;53.082;8.816;2022-11-03T10:02:46;100966.69;;;19.39;45.53
64889;BME280;51386;53.082;8.816;2022-11-03T10:05:19;100960.06;;;19.41;45.85
64889;BME280;51386;53.082;8.816;2022-11-03T10:07:49;100951.81;;;19.43;45.61
64889;BME280;51386;53.082;8.816;2022-11-03T10:10:19;100951.81;;;19.43;45.46
64889;BME280;51386;53.082;8.816;2022-11-03T10:12:48;100947.53;;;19.42;45.51
64889;BME280;51386;53.082;8.816;2022-11-03T10:15:24;100945.31;;;19.39;45.58
64889;BME280;51386;53.082;8.816;2022-11-03T10:17:59;100946.94;;;19.40;45.25
64889;BME280;51386;53.082;8.816;2022-11-03T10:20:30;100944.50;;;19.38;45.33
64889;BME280;51386;53.082;8.816;2022-11-03T10:22:59;100948.13;;;19.44;45.21
64889;BME280;51386;53.082;8.816;2022-11-03T10:25:39;100947.31;;;19.43;45.18
64889;BME280;51386;53.082;8.816;2022-11-03T10:28:14;100938.47;;;19.43;45.39
64889;BME280;51386;53.082;8.816;2022-11-03T10:30:53;100946.34;;;19.38;44.74
64889;BME280;51386;53.082;8.816;2022-11-03T10:33:49;100947.81;;;19.34;44.98
64889;BME280;51386;53.082;8.816;2022-11-03T10:36:24;100945.00;;;19.29;45.28
64889;BME280;51386;53.082;8.816;2022-11-03T10:38:53;100947.16;;;19.38;45.43
64889;BME280;51386;53.082;8.816;2022-11-03T10:41:24;100937.91;;;19.41;45.29
64889;BME280;51386;53.082;8.816;2022-11-03T10:44:04;100933.16;;;19.25;45.05
64889;BME280;51386;53.082;8.816;2022-11-03T10:46:37;100924.09;;;19.26;45.20
64889;BME280;51386;53.082;8.816;2022-11-03T10:49:18;100923.66;;;19.29;44.99
64889;BME280;51386;53.082;8.816;2022-11-03T10:51:50;100923.66;;;19.29;45.07
64889;BME280;51386;53.082;8.816;2022-11-03T10:54:23;100919.97;;;19.30;45.18
64889;BME280;51386;53.082;8.816;2022-11-03T10:56:52;100911.38;;;19.28;45.44
64889;BME280;51386;53.082;8.816;2022-11-03T10:59:23;100905.28;;;19.21;45.15
64889;BME280;51386;53.082;8.816;2022-11-03T11:01:54;100897.97;;;19.16;45.53
64889;BME280;51386;53.082;8.816;2022-11-03T11:04:21;100907.38;;;19.19;45.68
64889;BME280;51386;53.082;8.816;2022-11-03T11:06:51;100904.84;;;19.24;45.33
64889;BME280;51386;53.082;8.816;2022-11-03T11:09:27;100893.28;;;19.30;45.41
64889;BME280;51386;53.082;8.816;2022-11-03T11:12:13;100887.94;;;19.30;44.85
64889;BME280;51386;53.082;8.816;2022-11-03T11:14:53;100872.81;;;19.24;45.50
64889;BME280;51386;53.082;8.816;2022-11-03T11:17:44;100869.69;;;19.27;45.42
64889;BME280;51386;53.082;8.816;2022-11-03T11:20:33;100857.50;;;19.31;45.11
64889;BME280;51386;53.082;8.816;2022-11-03T11:23:52;100858.00;;;19.28;44.98
64889;BME280;51386;53.082;8.816;2022-11-03T11:26:40;100836.16;;;19.31;44.74
64889;BME280;51386;53.082;8.816;2022-11-03T11:29:41;100837.94;;;19.37;44.74
64889;BME280;51386;53.082;8.816;2022-11-03T11:32:57;100825.63;;;19.36;44.34
64889;BME280;51386;53.082;8.816;2022-11-03T11:36:04;100821.56;;;19.45;44.90
64889;BME280;51386;53.082;8.816;2022-11-03T11:38:59;100813.69;;;19.50;44.55
64889;BME280;51386;53.082;8.816;2022-11-03T11:42:05;100810.91;;;19.56;44.18
64889;BME280;51386;53.082;8.816;2022-11-03T11:44:57;100798.94;;;19.59;44.37
64889;BME280;51386;53.082;8.816;2022-11-03T11:47:47;100800.78;;;19.47;44.00
64889;BME280;51386;53.082;8.816;2022-11-03T11:50:29;100802.69;;;19.58;43.81
64889;BME280;51386;53.082;8.816;2022-11-03T11:53:12;100796.75;;;19.56;43.83
64889;BME280;51386;53.082;8.816;2022-11-03T11:55:45;100787.94;;;19.44;44.17
64889;BME280;51386;53.082;8.816;2022-11-03T11:58:28;100784.69;;;19.42;44.17
64889;BME280;51386;53.082;8.816;2022-11-03T12:01:18;100783.88;;;19.41;44.68
64889;BME280;51386;53.082;8.816;2022-11-03T12:04:06;100784.03;;;19.28;44.28
64889;BME280;51386;53.082;8.816;2022-11-03T12:06:39;100782.50;;;19.21;44.14
64889;BME280;51386;53.082;8.816;2022-11-03T12:09:14;100771.84;;;19.21;44.60
64889;BME280;51386;53.082;8.816;2022-11-03T12:11:44;100775.81;;;19.30;44.59
64889;BME280;51386;53.082;8.816;2022-11-03T12:14:25;100771.06;;;19.32;44.10
64889;BME280;51386;53.082;8.816;2022-11-03T12:17:30;100768.13;;;19.22;44.16
64889;BME280;51386;53.082;8.816;2022-11-03T12:19:59;100753.06;;;19.27;44.38
64889;BME280;51386;53.082;8.816;2022-11-03T12:22:41;100758.16;;;19.29;44.13
64889;BME280;51386;53.082;8.816;2022-11-03T12:25:35;100755.72;;;19.27;44.80
64889;BME280;51386;53.082;8.816;2022-11-03T12:28:05;100751.47;;;19.38;44.84
64889;BME280;51386;53.082;8.816;2022-11-03T12:30:33;100754.94;;;19.38;44.88
64889;BME280;51386;53.082;8.816;2022-11-03T12:33:06;100751.00;;;19.41;45.17
64889;BME280;51386;53.082;8.816;2022-11-03T12:35:34;100741.03;;;19.48;44.77
64889;BME280;51386;53.082;8.816;2022-11-03T12:38:03;100737.91;;;19.51;44.59
64889;BME280;51386;53.082;8.816;2022-11-03T12:40:30;100730.00;;;19.44;45.21
64889;BME280;51386;53.082;8.816;2022-11-03T12:42:57;100724.75;;;19.38;45.32
64889;BME280;51386;53.082;8.816;2022-11-03T12:45:25;100719.44;;;19.38;45.21
64889;BME280;51386;53.082;8.816;2022-11-03T12:47:52;100706.66;;;19.40;45.38
64889;BME280;51386;53.082;8.816;2022-11-03T12:50:20;100695.50;;;19.43;45.33
64889;BME280;51386;53.082;8.816;2022-11-03T12:52:47;100698.75;;;19.45;45.64
64889;BME280;51386;53.082;8.816;2022-11-03T12:55:16;100699.47;;;19.40;45.60
64889;BME280;51386;53.082;8.816;2022-11-03T12:57:43;100702.13;;;19.40;46.08
64889;BME280;51386;53.082;8.816;2022-11-03T13:00:13;100687.75;;;19.41;45.97
64889;BME280;51386;53.082;8.816;2022-11-03T13:02:52;100686.22;;;19.34;46.73
64889;BME280;51386;53.082;8.816;2022-11-03T13:05:20;100680.19;;;19.27;47.03
64889;BME280;51386;53.082;8.816;2022-11-03T13:07:48;100690.84;;;19.27;46.97
64889;BME280;51386;53.082;8.816;2022-11-03T13:10:17;100693.78;;;19.25;47.37
64889;BME280;51386;53.082;8.816;2022-11-03T13:12:45;100683.31;;;19.24;47.31
64889;BME280;51386;53.082;8.816;2022-11-03T13:15:13;100681.22;;;19.26;47.67
64889;BME280;51386;53.082;8.816;2022-11-03T13:17:55;100673.22;;;19.26;47.46
64889;BME280;51386;53.082;8.816;2022-11-03T13:20:42;100666.38;;;19.18;47.75
64889;BME280;51386;53.082;8.816;2022-11-03T13:23:11;100670.78;;;19.13;48.14